Time;durP1;ratioP1;P1;durP2;ratioP2;P2;SDS_P1;SDS_P2;PMS_P1;PMS_P2;Temp;Humidity;BMP_temperature;BMP_pressure;BME280_temperature;BME280_humidity;BME280_pressure;Samples;Min_cycle;Max_cycle;Signal;HPM_P1;HPM_P2
2022/12/31 00:02:20;;;;;;;71.50;24.25;;;;;;;4.43;100.00;101649.30;1848114;77;20973;-88
2022/12/31 00:04:46;;;;;;;64.22;23.98;;;;;;;4.37;100.00;101643.41;1848232;76;21120;-87
2022/12/31 00:07:12;;;;;;;67.47;23.55;;;;;;;4.32;100.00;101641.33;1848136;77;20976;-87
2022/12/31 00:09:39;;;;;;;63.20;22.73;;;;;;;4.23;100.00;101638.97;1847782;77;21527;-87
2022/12/31 00:12:06;;;;;;;63.75;23.50;;;;;;;4.16;100.00;101654.09;1848028;77;20941;-87
2022/12/31 00:14:32;;;;;;;63.58;23.65;;;;;;;4.08;100.00;101652.38;1847899;77;21859;-87
2022/12/31 00:16:58;;;;;;;67.47;23.73;;;;;;;4.01;100.00;101650.98;1848119;77;21169;-87
2022/12/31 00:19:24;;;;;;;69.67;23.73;;;;;;;3.93;100.00;101648.95;1847978;77;21004;-86
2022/12/31 00:21:50;;;;;;;69.58;24.43;;;;;;;3.84;100.00;101639.73;1848244;77;21066;-89
2022/12/31 00:24:17;;;;;;;70.37;24.90;;;;;;;3.77;100.00;101626.84;1848324;77;21102;-87
2022/12/31 00:26:43;;;;;;;64.95;23.35;;;;;;;3.70;100.00;101638.45;1849886;77;20959;-86
2022/12/31 00:29:09;;;;;;;73.47;25.57;;;;;;;3.60;100.00;101636.91;1848532;77;21204;-87
2022/12/31 00:31:37;;;;;;;63.42;23.20;;;;;;;3.54;100.00;101646.99;1848180;77;20957;-87
2022/12/31 00:34:06;;;;;;;61.40;23.07;;;;;;;3.46;100.00;101639.09;1848337;77;20980;-86
2022/12/31 00:36:36;;;;;;;62.85;24.07;;;;;;;3.39;100.00;101647.53;1847977;77;21027;-86
2022/12/31 00:39:05;;;;;;;64.45;23.05;;;;;;;3.33;100.00;101649.61;1848600;77;21106;-85
2022/12/31 00:41:32;;;;;;;62.30;22.95;;;;;;;3.26;100.00;101638.84;1848373;77;21132;-84
2022/12/31 00:43:59;;;;;;;66.75;23.07;;;;;;;3.23;100.00;101653.87;1848325;77;21004;-87
2022/12/31 00:46:26;;;;;;;65.10;23.18;;;;;;;3.23;100.00;101647.20;1848265;77;20985;-86
2022/12/31 00:48:52;;;;;;;69.22;24.37;;;;;;;3.19;100.00;101646.77;1848644;77;21020;-86
2022/12/31 00:51:22;;;;;;;80.90;23.67;;;;;;;3.19;100.00;101648.09;1848524;77;20968;-86
2022/12/31 00:53:48;;;;;;;68.62;22.77;;;;;;;3.21;100.00;101653.73;1848451;77;21072;-86
2022/12/31 00:56:19;;;;;;;68.17;22.93;;;;;;;3.19;100.00;101650.76;1848422;77;21003;-84
2022/12/31 00:58:47;;;;;;;73.67;25.32;;;;;;;3.18;100.00;101654.95;1784504;80;21048;-87
2022/12/31 01:01:24;;;;;;;64.58;22.95;;;;;;;3.15;100.00;101662.80;1784539;80;21016;-92
2022/12/31 01:03:54;;;;;;;71.28;24.00;;;;;;;3.12;100.00;101664.50;1688444;83;21093;-87
2022/12/31 01:06:20;;;;;;;69.65;24.23;;;;;;;3.12;100.00;101663.68;1688713;83;21333;-87
2022/12/31 01:08:52;;;;;;;70.90;24.12;;;;;;;3.10;100.00;101653.70;1688496;83;21124;-87
2022/12/31 01:11:20;;;;;;;66.02;23.20;;;;;;;3.04;100.00;101651.27;1688669;83;21144;-86
2022/12/31 01:13:51;;;;;;;66.50;22.27;;;;;;;2.99;100.00;101652.83;1688406;84;21621;-87
2022/12/31 01:16:22;;;;;;;64.22;23.87;;;;;;;2.92;100.00;101651.41;1627963;87;20998;-87
2022/12/31 01:18:50;;;;;;;65.08;22.70;;;;;;;2.89;100.00;101651.27;1518382;94;21187;-87
2022/12/31 01:21:18;;;;;;;65.78;21.60;;;;;;;2.85;100.00;101651.80;1518483;94;21097;-86
2022/12/31 01:23:44;;;;;;;70.97;22.10;;;;;;;2.77;100.00;101649.25;1518365;94;21041;-87
2022/12/31 01:26:13;;;;;;;63.98;21.55;;;;;;;2.71;100.00;101650.80;1518497;93;21089;-88
2022/12/31 01:28:39;;;;;;;70.62;25.10;;;;;;;2.67;100.00;101654.30;1518423;94;21117;-87
2022/12/31 01:31:13;;;;;;;64.62;23.57;;;;;;;2.62;100.00;101661.20;1518464;94;21295;-87
2022/12/31 01:33:40;;;;;;;72.25;27.17;;;;;;;2.56;100.00;101653.44;1518434;94;21080;-88
2022/12/31 01:36:10;;;;;;;73.60;26.12;;;;;;;2.51;100.00;101650.48;1518376;94;21092;-86
2022/12/31 01:38:37;;;;;;;67.03;24.57;;;;;;;2.46;100.00;101655.00;1526255;93;21090;-86
2022/12/31 01:41:04;;;;;;;75.42;24.32;;;;;;;2.42;100.00;101668.35;1528069;93;21097;-87
2022/12/31 01:44:02;;;;;;;85.55;27.15;;;;;;;2.38;100.00;101667.55;1528105;93;21361;-87
2022/12/31 01:46:49;;;;;;;65.25;24.05;;;;;;;2.35;100.00;101668.72;1528021;93;21066;-88
2022/12/31 01:49:41;;;;;;;71.62;25.08;;;;;;;2.28;100.00;101664.63;1546281;91;21167;-88
2022/12/31 01:52:27;;;;;;;71.27;25.87;;;;;;;2.25;100.00;101676.95;1562605;91;21570;-88
2022/12/31 01:55:15;;;;;;;69.35;24.70;;;;;;;2.23;100.00;101684.78;1562269;91;21844;-89
2022/12/31 01:57:44;;;;;;;70.80;25.97;;;;;;;2.17;100.00;101683.66;1562037;91;21143;-89
2022/12/31 02:00:11;;;;;;;75.95;24.77;;;;;;;2.11;100.00;101679.05;1571540;89;21637;-95
2022/12/31 02:02:38;;;;;;;75.67;25.27;;;;;;;2.08;100.00;101688.71;1597585;89;21077;-88
2022/12/31 02:05:09;;;;;;;74.00;23.85;;;;;;;2.02;100.00;101697.39;1597170;89;21138;-88
2022/12/31 02:07:36;;;;;;;73.33;24.32;;;;;;;1.97;100.00;101698.42;1594741;89;21070;-88
2022/12/31 02:10:02;;;;;;;75.12;24.27;;;;;;;1.93;100.00;101708.58;1597260;89;21128;-89
2022/12/31 02:12:29;;;;;;;71.77;24.18;;;;;;;1.86;100.00;101707.64;1623490;83;21466;-89
2022/12/31 02:14:55;;;;;;;75.47;24.30;;;;;;;1.84;100.00;101709.63;1745384;77;21544;-89
2022/12/31 02:17:39;;;;;;;70.08;23.92;;;;;;;1.85;100.00;101710.45;1850901;77;21067;-89
2022/12/31 02:20:43;;;;;;;75.15;24.23;;;;;;;1.89;100.00;101703.30;1844184;77;20972;-89
2022/12/31 02:23:36;;;;;;;81.05;24.23;;;;;;;1.93;100.00;101702.44;1851435;77;21144;-88
2022/12/31 02:26:43;;;;;;;73.78;23.70;;;;;;;1.97;100.00;101705.91;1847041;77;20957;-88
2022/12/31 02:29:57;;;;;;;82.37;24.45;;;;;;;1.99;100.00;101707.05;1850703;77;22025;-88
2022/12/31 02:32:32;;;;;;;;;;;;;;;2.03;100.00;101709.70;1853458;77;21102;-88
2022/12/31 02:35:04;;;;;;;76.25;23.73;;;;;;;2.04;100.00;101698.06;1850648;77;20136;-87
2022/12/31 02:37:34;;;;;;;87.40;24.63;;;;;;;2.05;100.00;101694.39;1843301;77;21076;-87
2022/12/31 02:40:01;;;;;;;86.37;26.75;;;;;;;2.02;100.00;101689.42;1850579;77;20921;-91
2022/12/31 02:42:27;;;;;;;92.05;27.37;;;;;;;2.00;100.00;101689.61;1850627;77;21453;-87
2022/12/31 02:44:53;;;;;;;95.92;28.87;;;;;;;2.00;100.00;101692.27;1850742;77;21031;-88
2022/12/31 02:47:51;;;;;;;104.17;31.57;;;;;;;2.03;100.00;101711.03;1850751;77;21011;-87
2022/12/31 02:50:54;;;;;;;95.17;29.55;;;;;;;2.06;100.00;101712.02;1850665;77;22007;-88
2022/12/31 02:53:27;;;;;;;88.03;27.22;;;;;;;2.11;100.00;101718.11;1810272;77;21051;-89
2022/12/31 02:55:58;;;;;;;91.80;27.82;;;;;;;2.16;100.00;101720.57;1814501;79;21044;-88
2022/12/31 03:04:35;;;;;;;100.18;27.25;;;;;;;2.46;100.00;101714.86;1747715;80;21506;-88
2022/12/31 03:07:08;;;;;;;100.42;29.02;;;;;;;2.54;100.00;101713.98;1747930;80;20879;-90
2022/12/31 03:09:36;;;;;;;110.85;28.67;;;;;;;2.61;100.00;101706.92;1756960;80;20992;-88
2022/12/31 03:14:51;;;;;;;86.28;27.15;;;;;;;2.73;100.00;101728.61;1756705;80;21005;-86
2022/12/31 03:17:17;;;;;;;99.35;29.27;;;;;;;2.83;100.00;101740.35;1757059;81;21209;-88
2022/12/31 03:22:29;;;;;;;95.65;26.20;;;;;;;2.97;100.00;101768.81;1756802;80;21044;-88
2022/12/31 03:27:52;;;;;;;85.12;26.02;;;;;;;2.98;100.00;101744.38;1756802;80;21132;-89
2022/12/31 03:30:21;;;;;;;83.92;25.77;;;;;;;2.98;100.00;101757.69;1758359;80;21760;-88
2022/12/31 03:32:49;;;;;;;83.52;26.00;;;;;;;2.92;100.00;101763.23;1760714;81;21499;-89
2022/12/31 03:35:19;;;;;;;86.10;25.88;;;;;;;2.88;100.00;101763.25;1760906;81;21038;-92
2022/12/31 03:37:46;;;;;;;83.65;26.23;;;;;;;2.82;100.00;101769.29;1758171;81;20979;-88
2022/12/31 03:40:14;;;;;;;87.65;25.52;;;;;;;2.78;100.00;101758.18;1752089;81;21558;-86
2022/12/31 03:42:41;;;;;;;73.60;24.25;;;;;;;2.77;100.00;101756.54;1752212;81;21117;-90
2022/12/31 03:45:09;;;;;;;78.30;24.65;;;;;;;2.73;100.00;101758.70;1752049;81;21007;-88
2022/12/31 03:47:36;;;;;;;85.30;27.13;;;;;;;2.70;100.00;101736.95;1752260;81;21054;-89
2022/12/31 03:50:03;;;;;;;88.17;26.15;;;;;;;2.66;100.00;101741.81;1727039;81;21034;-87
2022/12/31 03:52:30;;;;;;;81.67;27.07;;;;;;;2.63;100.00;101737.36;1752104;81;21098;-89
2022/12/31 03:54:56;;;;;;;87.97;26.35;;;;;;;2.60;100.00;101732.39;1752183;81;21109;-89
2022/12/31 03:57:23;;;;;;;75.40;25.15;;;;;;;2.56;100.00;101742.58;1727291;81;21496;-89
2022/12/31 03:59:50;;;;;;;85.77;26.85;;;;;;;2.54;100.00;101753.89;1752310;81;21558;-88
2022/12/31 04:02:16;;;;;;;76.70;24.90;;;;;;;2.49;100.00;101750.42;1768609;80;21035;-88
2022/12/31 04:04:42;;;;;;;79.20;25.35;;;;;;;2.52;100.00;101769.70;1774505;80;21063;-88
2022/12/31 04:07:09;;;;;;;80.92;24.67;;;;;;;2.54;100.00;101795.13;1774556;80;21203;-88
2022/12/31 04:09:35;;;;;;;79.60;24.37;;;;;;;2.53;100.00;101800.14;1774565;80;21055;-88
2022/12/31 04:12:01;;;;;;;80.62;25.25;;;;;;;2.53;100.00;101812.11;1781253;79;21091;-89
2022/12/31 04:14:27;;;;;;;74.55;26.05;;;;;;;2.49;100.00;101806.29;1815186;79;21034;-89
2022/12/31 04:16:54;;;;;;;72.53;24.15;;;;;;;2.45;100.00;101807.66;1815127;78;21112;-87
2022/12/31 04:19:20;;;;;;;80.50;24.63;;;;;;;2.43;100.00;101807.50;1815150;79;21100;-89
2022/12/31 04:21:46;;;;;;;73.87;25.05;;;;;;;2.39;100.00;101811.02;1814776;79;21077;-88
2022/12/31 04:24:12;;;;;;;76.07;25.27;;;;;;;2.36;100.00;101814.54;1815224;79;21025;-88
2022/12/31 04:26:38;;;;;;;79.27;26.23;;;;;;;2.32;100.00;101811.89;1815291;79;21022;-88
2022/12/31 04:29:05;;;;;;;76.17;24.27;;;;;;;2.29;100.00;101817.05;1815413;79;20975;-87
2022/12/31 04:31:32;;;;;;;73.30;24.10;;;;;;;2.25;100.00;101815.75;1815087;78;21902;-89
2022/12/31 04:33:58;;;;;;;81.70;24.95;;;;;;;2.20;100.00;101816.27;1814859;79;21089;-88
2022/12/31 04:36:24;;;;;;;68.30;23.87;;;;;;;2.15;100.00;101816.48;1814866;79;21049;-87
2022/12/31 04:38:51;;;;;;;73.83;23.92;;;;;;;2.11;100.00;101815.16;1836351;77;20984;-88
2022/12/31 04:41:17;;;;;;;76.30;25.68;;;;;;;2.07;100.00;101821.33;1846315;77;20944;-87
2022/12/31 04:43:48;;;;;;;75.70;24.92;;;;;;;2.04;100.00;101821.17;1850661;77;21152;-89
2022/12/31 04:46:16;;;;;;;77.85;24.98;;;;;;;2.03;100.00;101821.36;1850722;77;21144;-91
2022/12/31 04:48:43;;;;;;;78.80;24.37;;;;;;;2.01;100.00;101826.02;1850548;77;21148;-88
2022/12/31 04:51:09;;;;;;;77.40;24.87;;;;;;;2.01;100.00;101823.35;1850760;77;20964;-89
2022/12/31 04:53:36;;;;;;;81.08;26.30;;;;;;;2.04;100.00;101829.14;1850621;77;21024;-88
2022/12/31 04:56:04;;;;;;;77.62;24.47;;;;;;;2.08;100.00;101830.13;1850849;77;21053;-90
2022/12/31 04:58:31;;;;;;;70.87;25.27;;;;;;;2.12;100.00;101837.60;1850814;77;21008;-95
2022/12/31 05:00:57;;;;;;;71.35;24.27;;;;;;;2.13;100.00;101838.42;1821882;78;20997;-88
2022/12/31 05:03:25;;;;;;;80.32;24.80;;;;;;;2.10;100.00;101844.91;1821919;78;21197;-88
2022/12/31 05:05:52;;;;;;;72.05;24.55;;;;;;;2.08;100.00;101847.41;1822179;78;21014;-89
2022/12/31 05:08:19;;;;;;;75.97;24.00;;;;;;;2.05;100.00;101862.70;1822358;78;21034;-87
2022/12/31 05:10:48;;;;;;;75.75;24.15;;;;;;;2.02;100.00;101860.89;1822149;78;20919;-88
2022/12/31 05:13:15;;;;;;;76.53;24.45;;;;;;;1.96;100.00;101866.89;1822126;78;21050;-93
2022/12/31 05:15:41;;;;;;;65.83;22.52;;;;;;;1.92;100.00;101870.91;1821715;77;21021;-86
2022/12/31 05:18:08;;;;;;;78.52;24.72;;;;;;;1.87;100.00;101866.59;1822247;78;21119;-88
2022/12/31 05:20:35;;;;;;;70.72;23.70;;;;;;;1.81;100.00;101871.59;1822059;78;21130;-88
2022/12/31 05:23:01;;;;;;;75.62;25.60;;;;;;;1.76;100.00;101876.58;1822353;78;20979;-92
2022/12/31 05:25:27;;;;;;;74.85;24.10;;;;;;;1.73;100.00;101875.59;1835241;77;21031;-88
2022/12/31 05:27:54;;;;;;;73.45;24.15;;;;;;;1.69;100.00;101878.27;1850920;77;21039;-88
2022/12/31 05:30:21;;;;;;;70.97;24.00;;;;;;;1.66;100.00;101883.92;1850441;77;21516;-89
2022/12/31 05:32:47;;;;;;;78.57;24.52;;;;;;;1.68;100.00;101887.75;1850630;77;21150;-88
2022/12/31 05:35:13;;;;;;;80.75;25.17;;;;;;;1.71;100.00;101894.05;1822474;77;20968;-87
2022/12/31 05:37:39;;;;;;;73.05;25.17;;;;;;;1.76;100.00;101894.35;1850410;77;21063;-87
2022/12/31 05:40:07;;;;;;;79.05;24.32;;;;;;;1.81;100.00;101882.22;1848504;77;21008;-88
2022/12/31 05:42:33;;;;;;;83.42;24.32;;;;;;;1.87;100.00;101889.19;1848189;77;21007;-87
2022/12/31 05:45:00;;;;;;;65.60;22.65;;;;;;;1.91;100.00;101897.14;1848212;77;21798;-88
2022/12/31 05:47:26;;;;;;;74.37;26.27;;;;;;;1.92;100.00;101897.48;1848180;77;21501;-87
2022/12/31 05:49:52;;;;;;;83.78;26.10;;;;;;;1.97;100.00;101899.11;1848470;77;21635;-85
2022/12/31 05:52:18;;;;;;;75.35;24.50;;;;;;;2.03;100.00;101899.28;1848203;77;21512;-87
2022/12/31 05:54:45;;;;;;;79.03;25.48;;;;;;;2.08;100.00;101916.03;1848269;77;21449;-87
2022/12/31 05:57:11;;;;;;;80.95;26.00;;;;;;;2.16;100.00;101913.35;1848331;77;21051;-88
2022/12/31 05:59:38;;;;;;;73.55;24.40;;;;;;;2.23;100.00;101912.98;1847933;77;21020;-87
2022/12/31 06:02:04;;;;;;;72.55;24.47;;;;;;;2.29;100.00;101915.45;1848371;77;21207;-87
2022/12/31 06:04:30;;;;;;;69.87;23.20;;;;;;;2.34;100.00;101922.42;1848195;77;20962;-88
2022/12/31 06:06:57;;;;;;;71.62;24.65;;;;;;;2.35;100.00;101920.59;1848499;77;21074;-87
2022/12/31 06:09:24;;;;;;;67.53;22.13;;;;;;;2.34;100.00;101917.11;1847877;77;21114;-88
2022/12/31 06:11:50;;;;;;;75.83;24.77;;;;;;;2.38;100.00;101921.09;1848176;77;21020;-87
2022/12/31 06:14:17;;;;;;;75.55;24.32;;;;;;;2.41;100.00;101920.75;1848127;77;21023;-85
2022/12/31 06:16:43;;;;;;;70.25;24.32;;;;;;;2.62;100.00;101925.98;1848183;77;20988;-85
2022/12/31 06:19:09;;;;;;;73.52;24.47;;;;;;;3.25;100.00;101925.40;1848121;77;21047;-87
2022/12/31 06:21:36;;;;;;;69.77;24.07;;;;;;;3.90;100.00;101935.47;1848163;77;21045;-88
2022/12/31 06:24:02;;;;;;;57.40;21.82;;;;;;;4.55;100.00;101925.36;1847881;77;20968;-85
2022/12/31 06:26:28;;;;;;;54.00;20.30;;;;;;;5.34;100.00;101927.22;1848204;77;21449;-88
2022/12/31 06:28:55;;;;;;;47.35;20.12;;;;;;;6.24;100.00;101936.34;1848466;77;21005;-87
2022/12/31 06:31:21;;;;;;;51.33;20.95;;;;;;;6.89;100.00;101936.00;1848271;77;21014;-92
2022/12/31 06:33:47;;;;;;;54.45;20.90;;;;;;;7.27;100.00;101942.98;1848091;77;21107;-87
2022/12/31 06:36:15;;;;;;;47.38;19.90;;;;;;;7.91;100.00;101945.05;1852984;77;21018;-91
2022/12/31 06:38:43;;;;;;;49.93;20.75;;;;;;;8.82;100.00;101946.85;1848008;77;21633;-87
2022/12/31 06:41:12;;;;;;;41.45;18.27;;;;;;;9.96;100.00;101950.86;1836468;77;21005;-87
2022/12/31 06:43:40;;;;;;;43.73;18.87;;;;;;;10.83;100.00;101952.09;1836550;78;21095;-86
2022/12/31 06:46:10;;;;;;;35.73;16.77;;;;;;;11.25;100.00;101946.19;1836593;77;21704;-87
2022/12/31 06:48:37;;;;;;;38.13;17.92;;;;;;;11.77;100.00;101957.73;1836781;78;21033;-88
2022/12/31 06:51:16;;;;;;;35.92;17.10;;;;;;;12.10;100.00;101961.21;1836665;77;21055;-88
2022/12/31 06:53:43;;;;;;;38.25;16.87;;;;;;;12.39;100.00;101965.36;1808796;78;20985;-86
2022/12/31 06:56:30;;;;;;;35.30;16.52;;;;;;;12.46;100.00;101968.73;1836588;77;21068;-87
2022/12/31 06:58:58;;;;;;;41.45;16.48;;;;;;;11.83;100.00;101968.41;1836267;77;21034;-87
2022/12/31 07:01:58;;;;;;;36.38;17.23;;;;;;;11.00;100.00;101974.69;1778209;80;21117;-87
2022/12/31 07:04:41;;;;;;;37.88;16.70;;;;;;;10.16;100.00;101987.03;1780353;80;21064;-87
2022/12/31 07:07:31;;;;;;;45.40;18.73;;;;;;;9.08;100.00;101998.30;1780485;79;20996;-88
2022/12/31 07:10:17;;;;;;;40.03;16.75;;;;;;;8.31;100.00;102000.52;1780351;80;21586;-88
2022/12/31 07:13:12;;;;;;;42.23;16.95;;;;;;;7.79;100.00;102003.55;1647663;85;21922;-87
2022/12/31 07:15:58;;;;;;;44.08;18.10;;;;;;;7.49;100.00;102009.31;1605003;89;21112;-88
2022/12/31 07:19:05;;;;;;;45.03;18.20;;;;;;;7.16;100.00;102006.57;1605240;89;21101;-88
2022/12/31 07:21:36;;;;;;;42.73;17.48;;;;;;;6.95;100.00;102006.20;1557108;92;21146;-85
2022/12/31 07:24:06;;;;;;;44.05;17.62;;;;;;;6.71;100.00;102008.89;1557072;92;21120;-85
2022/12/31 07:27:02;;;;;;;46.28;19.12;;;;;;;6.54;100.00;102017.76;1556942;92;21127;-88
2022/12/31 07:29:48;;;;;;;49.10;18.52;;;;;;;6.42;100.00;102015.33;1553250;92;21206;-88
2022/12/31 07:32:34;;;;;;;47.98;18.55;;;;;;;6.26;100.00;102019.12;1556782;92;21106;-85
2022/12/31 07:35:18;;;;;;;48.78;19.40;;;;;;;6.12;100.00;102031.60;1556834;92;21154;-87
2022/12/31 07:37:52;;;;;;;49.08;19.35;;;;;;;5.99;100.00;102036.32;1556721;92;21142;-86
2022/12/31 07:40:33;;;;;;;50.30;19.57;;;;;;;5.92;100.00;102036.24;1567596;90;21285;-88
2022/12/31 07:43:13;;;;;;;51.40;20.12;;;;;;;5.89;100.00;102036.63;1566646;91;21562;-87
2022/12/31 07:45:50;;;;;;;53.87;19.82;;;;;;;5.80;100.00;102039.13;1567841;91;21097;-89
2022/12/31 07:48:26;;;;;;;54.20;20.57;;;;;;;5.74;100.00;102041.75;1566536;91;21106;-89
2022/12/31 07:50:55;;;;;;;48.30;19.17;;;;;;;5.78;100.00;102051.03;1625367;86;21029;-87
2022/12/31 07:53:23;;;;;;;48.45;19.40;;;;;;;5.66;100.00;102045.37;1725993;82;21180;-92
2022/12/31 07:55:58;;;;;;;57.62;22.13;;;;;;;5.70;100.00;102050.13;1793264;78;20965;-88
2022/12/31 07:58:46;;;;;;;56.95;20.08;;;;;;;5.79;100.00;102048.66;1777429;80;21247;-88
2022/12/31 08:01:17;;;;;;;49.23;20.23;;;;;;;5.84;100.00;102049.75;1777741;80;21063;-88
2022/12/31 08:04:10;;;;;;;64.27;20.60;;;;;;;5.88;100.00;102056.87;1757103;81;21023;-88
2022/12/31 08:06:57;;;;;;;56.55;21.37;;;;;;;6.06;100.00;102053.27;1765589;79;21247;-88
2022/12/31 08:09:37;;;;;;;56.33;21.10;;;;;;;6.22;100.00;102056.16;1782304;79;21118;-87
2022/12/31 08:12:04;;;;;;;51.92;20.40;;;;;;;6.36;100.00;102049.89;1783271;79;21516;-87
2022/12/31 08:14:32;;;;;;;49.45;20.80;;;;;;;6.76;100.00;102055.46;1757291;80;20999;-87
2022/12/31 08:16:58;;;;;;;53.60;20.60;;;;;;;7.41;100.00;102057.78;1782705;79;20998;-85
2022/12/31 08:19:29;;;;;;;56.88;21.12;;;;;;;7.52;100.00;102062.55;1783062;79;21762;-87
2022/12/31 08:22:16;;;;;;;50.60;20.52;;;;;;;7.56;100.00;102066.50;1782937;79;20991;-86
2022/12/31 08:24:59;;;;;;;56.58;20.55;;;;;;;7.53;100.00;102059.35;1783141;80;21015;-84
2022/12/31 08:27:29;;;;;;;;;;;;;;;7.57;100.00;102065.46;1781936;80;21519;-86
2022/12/31 08:30:12;;;;;;;54.38;20.62;;;;;;;7.47;100.00;102068.55;1783121;79;20164;-85
2022/12/31 08:32:44;;;;;;;;;;;;;;;7.21;100.00;102069.28;1783853;79;21094;-85
2022/12/31 08:35:31;;;;;;;52.62;21.45;;;;;;;7.13;100.00;102060.59;1791143;79;20156;-86
2022/12/31 08:38:32;;;;;;;51.92;20.92;;;;;;;7.22;100.00;102061.55;1816755;79;21075;-85
2022/12/31 08:41:24;;;;;;;63.30;22.00;;;;;;;7.27;100.00;102063.12;1816789;78;21505;-88
2022/12/31 08:44:17;;;;;;;57.98;23.10;;;;;;;7.23;100.00;102059.69;1746808;80;21332;-88
2022/12/31 08:47:04;;;;;;;62.33;23.27;;;;;;;7.10;100.00;102056.97;1730148;83;21147;-85
2022/12/31 08:49:33;;;;;;;57.53;22.35;;;;;;;7.15;100.00;102049.98;1729344;83;21027;-89
2022/12/31 08:52:01;;;;;;;74.80;25.88;;;;;;;7.17;100.00;102043.06;1729817;83;21038;-89
2022/12/31 08:54:30;;;;;;;65.97;23.52;;;;;;;7.21;100.00;102045.67;1729987;83;21115;-88
2022/12/31 08:57:40;;;;;;;71.00;24.95;;;;;;;7.17;100.00;102047.91;1734841;81;21008;-86
2022/12/31 09:00:16;;;;;;;68.00;24.18;;;;;;;7.07;100.00;102046.13;1731732;81;21611;-89
2022/12/31 09:03:07;;;;;;;67.87;23.22;;;;;;;7.02;100.00;102048.58;1729151;82;21515;-84
2022/12/31 09:05:48;;;;;;;56.92;23.77;;;;;;;7.01;100.00;102041.06;1729282;82;21061;-85
2022/12/31 09:08:39;;;;;;;64.82;24.18;;;;;;;7.01;100.00;102046.94;1686642;85;21595;-90
2022/12/31 09:11:22;;;;;;;58.05;23.50;;;;;;;6.87;100.00;102050.06;1628194;88;21042;-85
2022/12/31 09:14:17;;;;;;;63.02;23.85;;;;;;;6.70;100.00;102043.37;1625343;88;21974;-86
2022/12/31 09:17:20;;;;;;;66.35;24.55;;;;;;;6.63;100.00;102052.73;1576688;91;21072;-87
2022/12/31 09:19:47;;;;;;;66.03;24.37;;;;;;;6.52;100.00;102047.91;1578737;89;21049;-86
2022/12/31 09:22:14;;;;;;;63.42;22.77;;;;;;;6.47;100.00;102047.67;1595874;89;21155;-85
2022/12/31 09:24:40;;;;;;;60.95;24.05;;;;;;;6.46;100.00;102039.33;1566824;90;21119;-86
2022/12/31 09:27:12;;;;;;;69.87;26.07;;;;;;;6.48;100.00;102035.44;1584034;90;21243;-86
2022/12/31 09:30:07;;;;;;;62.90;24.25;;;;;;;6.49;100.00;102036.26;1569527;91;21543;-87
2022/12/31 09:33:13;;;;;;;68.92;25.43;;;;;;;6.45;100.00;102036.35;1572448;89;21705;-87
2022/12/31 09:35:51;;;;;;;61.50;23.22;;;;;;;6.48;100.00;102033.28;1548144;90;21416;-87
2022/12/31 09:39:00;;;;;;;66.60;24.12;;;;;;;6.45;100.00;102030.48;1545378;92;21109;-86
2022/12/31 09:42:13;;;;;;;73.05;25.97;;;;;;;6.59;100.00;102027.38;1548232;92;21419;-87
2022/12/31 09:45:11;;;;;;;69.47;25.75;;;;;;;6.70;100.00;102028.12;1549226;90;21077;-86
2022/12/31 09:47:50;;;;;;;63.78;25.90;;;;;;;6.71;100.00;102029.80;1584868;90;21049;-86
2022/12/31 09:50:21;;;;;;;69.97;24.55;;;;;;;6.73;100.00;102026.39;1581990;90;21581;-85
2022/12/31 09:53:12;;;;;;;68.05;25.95;;;;;;;6.69;100.00;102029.16;1585335;89;21073;-85
2022/12/31 09:55:52;;;;;;;71.15;25.27;;;;;;;6.64;100.00;102028.10;1660413;86;21657;-84
2022/12/31 09:58:43;;;;;;;64.95;25.25;;;;;;;6.68;100.00;102033.40;1645699;87;21493;-85
2022/12/31 10:01:51;;;;;;;66.20;26.17;;;;;;;6.65;100.00;102033.28;1645532;87;21687;-86
2022/12/31 10:05:12;;;;;;;62.00;25.43;;;;;;;6.67;100.00;102037.08;1645714;87;20981;-83
2022/12/31 10:08:19;;;;;;;63.10;25.35;;;;;;;6.71;100.00;102037.02;1708265;81;21523;-85
2022/12/31 10:11:13;;;;;;;72.47;26.23;;;;;;;6.66;100.00;102038.94;1753449;81;21200;-85
2022/12/31 10:14:27;;;;;;;68.67;25.37;;;;;;;6.62;100.00;102029.66;1727627;82;20994;-86
2022/12/31 10:17:08;;;;;;;74.82;26.75;;;;;;;6.75;100.00;102035.06;1731375;82;21094;-84
2022/12/31 10:20:00;;;;;;;71.62;27.00;;;;;;;6.71;100.00;102031.14;1727665;82;21111;-87
2022/12/31 10:22:55;;;;;;;72.87;26.33;;;;;;;6.71;100.00;102036.50;1731475;82;21034;-86
2022/12/31 10:26:00;;;;;;;69.75;27.27;;;;;;;6.74;100.00;102040.64;1730989;82;21943;-85
2022/12/31 10:28:57;;;;;;;72.20;27.37;;;;;;;6.66;100.00;102036.78;1731302;82;21096;-85
2022/12/31 10:32:05;;;;;;;74.00;29.35;;;;;;;6.60;100.00;102039.73;1731290;82;21065;-86
2022/12/31 10:34:56;;;;;;;77.55;28.62;;;;;;;6.56;100.00;102043.33;1733661;80;21569;-85
2022/12/31 10:37:39;;;;;;;78.83;30.10;;;;;;;6.59;100.00;102042.92;1784755;80;21043;-82
2022/12/31 10:40:26;;;;;;;78.62;29.80;;;;;;;6.54;100.00;102036.50;1742356;81;21166;-85
2022/12/31 10:43:26;;;;;;;69.55;27.17;;;;;;;6.55;100.00;102034.95;1737871;81;20986;-85
2022/12/31 10:46:15;;;;;;;75.28;28.65;;;;;;;6.53;100.00;102037.51;1739436;81;21021;-86
2022/12/31 10:49:11;;;;;;;74.47;27.17;;;;;;;6.54;100.00;102040.00;1674847;85;21029;-89
2022/12/31 10:52:02;;;;;;;73.52;27.05;;;;;;;6.57;100.00;102045.48;1640341;86;21042;-84
2022/12/31 10:54:58;;;;;;;72.75;28.00;;;;;;;6.54;100.00;102050.72;1640275;86;21574;-85
2022/12/31 10:57:58;;;;;;;73.17;28.73;;;;;;;6.42;100.00;102044.78;1639969;86;21085;-86
2022/12/31 11:00:29;;;;;;;74.30;27.90;;;;;;;6.40;100.00;102046.30;1646490;87;21044;-85
2022/12/31 11:03:25;;;;;;;75.50;28.20;;;;;;;6.31;100.00;102051.49;1631436;86;21060;-86
2022/12/31 11:06:17;;;;;;;71.60;27.32;;;;;;;6.40;100.00;102042.28;1630456;86;21028;-86
2022/12/31 11:09:33;;;;;;;84.22;30.20;;;;;;;6.35;100.00;102044.71;1630630;86;21344;-85
2022/12/31 11:12:36;;;;;;;78.92;28.92;;;;;;;6.22;100.00;102044.12;1627128;86;21636;-86
2022/12/31 11:15:44;;;;;;;93.00;32.83;;;;;;;6.19;100.00;102049.86;1627644;86;21073;-84
2022/12/31 11:18:27;;;;;;;90.10;31.65;;;;;;;6.25;100.00;102047.74;1598181;88;21089;-86
2022/12/31 11:21:05;;;;;;;;;;;;;;;6.20;100.00;102044.81;1605305;89;21540;-86
2022/12/31 11:23:54;;;;;;;91.17;30.17;;;;;;;6.17;100.00;102044.38;1602729;89;21108;-91
2022/12/31 11:26:57;;;;;;;94.42;32.23;;;;;;;6.17;100.00;102049.22;1638635;86;21357;-86
2022/12/31 11:29:40;;;;;;;89.15;29.77;;;;;;;6.03;100.00;102053.66;1658845;86;21012;-87
2022/12/31 11:32:37;;;;;;;88.60;29.60;;;;;;;5.84;100.00;102056.95;1657869;85;21021;-85
2022/12/31 11:35:21;;;;;;;84.95;29.63;;;;;;;5.65;100.00;102055.24;1658967;83;21116;-85
2022/12/31 11:38:11;;;;;;;89.15;29.32;;;;;;;5.62;100.00;102056.14;1710002;83;27167;-86
2022/12/31 11:41:06;;;;;;;80.67;27.73;;;;;;;5.54;100.00;102058.94;1720781;81;21132;-86
2022/12/31 11:43:37;;;;;;;85.38;27.02;;;;;;;5.42;100.00;102060.77;1727315;81;21093;-85
2022/12/31 11:46:33;;;;;;;79.07;27.05;;;;;;;5.32;100.00;102068.24;1679314;84;21049;-86
2022/12/31 11:49:17;;;;;;;82.15;27.17;;;;;;;5.24;100.00;102069.20;1704871;84;21014;-86
2022/12/31 11:52:03;;;;;;;82.40;27.85;;;;;;;5.16;100.00;102063.96;1702660;84;21989;-84
2022/12/31 11:54:41;;;;;;;79.65;26.85;;;;;;;5.02;100.00;102066.14;1719625;79;21564;-87
2022/12/31 11:57:36;;;;;;;92.00;26.95;;;;;;;4.95;100.00;102075.42;1689905;83;21582;-86
2022/12/31 12:00:24;;;;;;;73.75;26.70;;;;;;;4.85;100.00;102072.19;1667762;84;21048;-86
2022/12/31 12:03:01;;;;;;;85.50;26.65;;;;;;;4.74;100.00;102066.00;1670136;84;21000;-86
2022/12/31 12:05:29;;;;;;;70.62;23.15;;;;;;;4.69;100.00;102073.73;1642901;85;21212;-86
2022/12/31 12:07:56;;;;;;;78.15;23.55;;;;;;;4.66;100.00;102074.09;1644969;85;21555;-87